Time;durP1;ratioP1;P1;durP2;ratioP2;P2;SDS_P1;SDS_P2;PMS_P1;PMS_P2;Temp;Humidity;BMP_temperature;BMP_pressure;BME280_temperature;BME280_humidity;BME280_pressure;Samples;Min_cycle;Max_cycle;Signal;HPM_P1;HPM_P2
2020/12/07 00:00:19;;;;;;;119.47;42.08;;;;;;;6.86;75.70;99728.06;6255709;23;20039;-80
2020/12/07 00:02:45;;;;;;;132.77;41.40;;;;;;;6.86;75.32;99722.81;6256693;22;20465;-80
2020/12/07 00:05:11;;;;;;;128.85;42.25;;;;;;;6.88;75.39;99720.97;6256103;23;20046;-80
2020/12/07 00:07:37;;;;;;;121.88;41.17;;;;;;;6.90;75.55;99719.09;6256171;23;20032;-80
2020/12/07 00:10:05;;;;;;;119.38;42.45;;;;;;;6.88;75.41;99716.53;6255338;23;20022;-81
2020/12/07 00:12:31;;;;;;;117.38;41.92;;;;;;;6.90;75.24;99713.84;6256486;22;20023;-80
2020/12/07 00:14:58;;;;;;;120.95;41.70;;;;;;;6.91;75.69;99723.41;6255357;23;20020;-80
2020/12/07 00:17:26;;;;;;;108.47;39.97;;;;;;;6.91;75.60;99715.53;6256794;22;20023;-80
2020/12/07 00:19:52;;;;;;;119.47;41.60;;;;;;;6.90;75.74;99708.56;6259310;22;20018;-80
2020/12/07 00:22:26;;;;;;;114.78;40.05;;;;;;;6.92;75.55;99706.72;6255739;23;20023;-80
2020/12/07 00:24:53;;;;;;;116.38;40.45;;;;;;;6.92;75.66;99696.19;6255972;23;20043;-80
2020/12/07 00:27:25;;;;;;;123.35;42.65;;;;;;;6.93;75.86;99697.88;6254673;23;20077;-80
2020/12/07 00:29:51;;;;;;;123.97;42.67;;;;;;;6.94;75.77;99694.34;6257395;22;20012;-80
2020/12/07 00:32:19;;;;;;;125.43;43.10;;;;;;;6.95;75.72;99706.56;6255728;23;20034;-80
2020/12/07 00:34:45;;;;;;;123.80;41.78;;;;;;;6.94;75.76;99702.22;6256017;23;20024;-80
2020/12/07 00:37:11;;;;;;;126.78;42.58;;;;;;;6.93;75.39;99697.88;6257794;23;20020;-80
2020/12/07 00:39:38;;;;;;;129.10;41.47;;;;;;;6.91;75.48;99689.22;6254720;23;20087;-81
2020/12/07 00:42:04;;;;;;;116.88;41.42;;;;;;;6.92;75.71;99696.19;6255584;23;20016;-80
2020/12/07 00:44:30;;;;;;;125.97;42.47;;;;;;;6.90;75.43;99703.31;6227676;23;20031;-81
2020/12/07 00:46:57;;;;;;;118.38;39.90;;;;;;;6.91;75.73;99707.63;6253780;23;20101;-80
2020/12/07 00:49:23;;;;;;;134.98;42.65;;;;;;;6.92;75.59;99704.09;6254669;23;20024;-80
2020/12/07 00:51:49;;;;;;;137.57;40.75;;;;;;;6.91;75.29;99720.78;6229223;23;20119;-80
2020/12/07 00:54:16;;;;;;;134.63;42.63;;;;;;;6.91;75.26;99720.78;6253851;23;20024;-80
2020/12/07 00:56:43;;;;;;;109.30;37.45;;;;;;;6.90;75.40;99719.09;6251165;23;20090;-80
2020/12/07 00:59:11;;;;;;;125.25;40.97;;;;;;;6.88;75.68;99716.53;6228655;23;20024;-80
2020/12/07 01:01:38;;;;;;;141.80;42.60;;;;;;;6.90;75.51;99712.06;6253419;22;20026;-80
2020/12/07 01:04:05;;;;;;;145.15;43.00;;;;;;;6.90;75.54;99708.56;6253241;23;20028;-80
2020/12/07 01:06:33;;;;;;;148.23;44.25;;;;;;;6.90;75.73;99724.38;6251318;23;20035;-80
2020/12/07 01:09:03;;;;;;;136.38;42.45;;;;;;;6.90;75.63;99734.91;6252849;22;20016;-80
2020/12/07 01:11:33;;;;;;;134.38;41.40;;;;;;;6.89;75.45;99728.75;6250771;23;20389;-80
2020/12/07 01:14:03;;;;;;;146.52;45.95;;;;;;;6.88;75.37;99720.97;6249840;23;20083;-80
2020/12/07 01:16:30;;;;;;;149.30;44.25;;;;;;;6.88;75.37;99710.44;6222970;23;20392;-80
2020/12/07 01:18:57;;;;;;;157.60;45.03;;;;;;;6.86;75.53;99713.13;6247198;23;20042;-80
2020/12/07 01:21:25;;;;;;;163.82;45.35;;;;;;;6.85;75.95;99710.56;6223068;23;20107;-80
2020/12/07 01:23:51;;;;;;;170.23;46.45;;;;;;;6.85;75.80;99705.31;6249681;22;20020;-80
2020/12/07 01:26:18;;;;;;;149.32;42.25;;;;;;;6.82;76.00;99701.91;6222617;23;20027;-80
2020/12/07 01:28:46;;;;;;;181.20;46.60;;;;;;;6.81;75.63;99700.19;6222110;23;20020;-79
2020/12/07 01:31:12;;;;;;;152.43;45.17;;;;;;;6.79;75.60;99686.25;6246227;23;20016;-79
2020/12/07 01:33:38;;;;;;;167.85;45.30;;;;;;;6.78;75.58;99689.81;6220580;23;20020;-79
2020/12/07 01:36:04;;;;;;;189.23;49.80;;;;;;;6.77;75.75;99677.56;6249756;23;20020;-79
2020/12/07 01:38:30;;;;;;;149.50;42.95;;;;;;;6.77;75.86;99677.56;6223255;23;20027;-79
2020/12/07 01:40:57;;;;;;;150.07;42.28;;;;;;;6.75;75.92;99684.69;6247047;23;20040;-79
2020/12/07 01:43:23;;;;;;;184.88;46.70;;;;;;;6.75;75.89;99679.44;6246029;23;20024;-79
2020/12/07 01:45:53;;;;;;;192.10;49.00;;;;;;;6.76;75.96;99681.16;6246225;22;20020;-79
2020/12/07 01:48:19;;;;;;;177.07;46.83;;;;;;;6.76;76.03;99675.88;6245990;23;20070;-79
2020/12/07 01:50:45;;;;;;;185.07;47.88;;;;;;;6.76;75.73;99681.16;6246862;22;20024;-79
2020/12/07 01:53:12;;;;;;;182.15;50.53;;;;;;;6.76;76.19;99670.63;6249392;23;20031;-79
2020/12/07 01:55:40;;;;;;;193.98;47.33;;;;;;;6.75;76.05;99679.44;6246354;23;20039;-80
2020/12/07 01:58:06;;;;;;;208.20;49.60;;;;;;;6.76;76.31;99675.00;6247022;22;20020;-79
2020/12/07 02:00:33;;;;;;;171.13;48.70;;;;;;;6.76;76.00;99678.50;6243678;23;20020;-79
2020/12/07 02:03:06;;;;;;;179.00;44.30;;;;;;;6.76;76.17;99681.16;6244489;23;20024;-80
2020/12/07 02:05:33;;;;;;;207.52;50.83;;;;;;;6.76;76.03;99673.25;6220225;23;20529;-79
2020/12/07 02:08:14;;;;;;;194.05;48.55;;;;;;;6.77;76.10;99677.56;6246685;23;20020;-80
2020/12/07 02:10:48;;;;;;;186.07;47.30;;;;;;;6.77;76.43;99672.31;6248473;23;20106;-79
2020/12/07 02:13:18;;;;;;;206.90;51.15;;;;;;;6.75;76.17;99666.28;6222515;23;20020;-79
2020/12/07 02:15:45;;;;;;;194.40;48.85;;;;;;;6.76;76.22;99660.09;6247230;23;20457;-79
2020/12/07 02:18:13;;;;;;;219.88;50.97;;;;;;;6.76;76.53;99654.84;6250507;23;20020;-79
2020/12/07 02:20:45;;;;;;;228.20;50.45;;;;;;;6.75;76.49;99653.13;6225968;23;20046;-80
2020/12/07 02:23:16;;;;;;;203.48;49.70;;;;;;;6.73;76.36;99644.44;6226949;23;20031;-79
2020/12/07 02:25:51;;;;;;;180.63;48.28;;;;;;;6.73;76.49;99636.56;6249624;23;20023;-79
2020/12/07 02:28:18;;;;;;;187.73;47.33;;;;;;;6.73;76.37;99636.56;6226315;23;20024;-79
2020/12/07 02:30:45;;;;;;;167.60;45.17;;;;;;;6.72;76.24;99634.84;6249527;23;20358;-80
2020/12/07 02:33:13;;;;;;;196.75;48.42;;;;;;;6.73;76.64;99627.81;6251771;22;20466;-79
2020/12/07 02:35:39;;;;;;;180.40;45.45;;;;;;;6.72;76.49;99637.47;6200275;23;20466;-79
2020/12/07 02:38:05;;;;;;;179.85;46.13;;;;;;;6.72;76.51;99628.72;6252444;23;20079;-79
2020/12/07 02:40:37;;;;;;;179.15;45.75;;;;;;;6.71;76.43;99625.25;6225245;23;20020;-79
2020/12/07 02:43:05;;;;;;;180.98;46.38;;;;;;;6.71;76.36;99625.25;6202894;23;20070;-79
2020/12/07 02:45:33;;;;;;;178.48;44.35;;;;;;;6.71;76.47;99616.50;6200920;23;20346;-79
2020/12/07 02:48:05;;;;;;;170.40;44.92;;;;;;;6.71;76.52;99608.63;6226003;23;20031;-79
2020/12/07 02:50:34;;;;;;;190.18;46.22;;;;;;;6.69;76.75;99607.84;6226502;23;20074;-79
2020/12/07 02:53:03;;;;;;;204.73;47.90;;;;;;;6.70;76.79;99613.00;6201057;23;20020;-79
2020/12/07 02:55:30;;;;;;;171.60;44.67;;;;;;;6.69;76.63;99606.06;6226251;23;20020;-79
2020/12/07 02:57:57;;;;;;;195.32;48.55;;;;;;;6.68;76.84;99604.34;6200581;23;20048;-79
2020/12/07 03:00:27;;;;;;;176.77;46.65;;;;;;;6.70;76.90;99602.47;6135842;23;20447;-76
2020/12/07 03:02:54;;;;;;;190.15;47.17;;;;;;;6.70;76.77;99597.22;6128807;23;20021;-76
2020/12/07 03:05:24;;;;;;;181.48;48.10;;;;;;;6.69;76.71;99595.53;6111107;23;20049;-76
2020/12/07 03:07:52;;;;;;;172.45;42.85;;;;;;;6.69;76.75;99587.66;6158111;23;20044;-76
2020/12/07 03:10:19;;;;;;;178.48;45.72;;;;;;;6.68;76.42;99580.66;6178067;23;20496;-76
2020/12/07 03:12:49;;;;;;;207.50;49.88;;;;;;;6.68;77.00;99583.28;6212871;23;20021;-76
2020/12/07 03:15:20;;;;;;;163.07;45.00;;;;;;;6.69;76.99;99585.00;6213040;23;20134;-76
2020/12/07 03:17:46;;;;;;;162.13;43.85;;;;;;;6.69;76.71;99590.28;6187516;23;20052;-76
2020/12/07 03:20:14;;;;;;;152.38;45.08;;;;;;;6.69;76.65;99579.75;6187870;23;20067;-76
2020/12/07 03:22:41;;;;;;;188.20;48.25;;;;;;;6.70;76.71;99591.13;6212531;23;20029;-76
2020/12/07 03:25:07;;;;;;;200.15;48.13;;;;;;;6.69;76.73;99585.00;6212768;23;20082;-76
2020/12/07 03:27:38;;;;;;;165.73;45.03;;;;;;;6.71;76.79;99592.84;6212515;23;20099;-76
2020/12/07 03:30:05;;;;;;;182.88;46.50;;;;;;;6.71;76.97;99583.16;6188434;23;20044;-76
2020/12/07 03:32:31;;;;;;;191.27;46.80;;;;;;;6.72;76.73;99578.72;6212533;23;20473;-76
2020/12/07 03:34:58;;;;;;;170.70;42.78;;;;;;;6.71;76.92;99583.16;6188272;23;20382;-76
2020/12/07 03:37:25;;;;;;;157.90;41.40;;;;;;;6.71;76.87;99577.88;6213371;23;20044;-76
2020/12/07 03:39:57;;;;;;;190.98;44.80;;;;;;;6.71;76.64;99583.16;6188770;23;20016;-76
2020/12/07 03:42:28;;;;;;;171.63;45.05;;;;;;;6.71;77.05;99577.03;6213331;23;20017;-76
2020/12/07 03:44:57;;;;;;;126.80;41.97;;;;;;;6.71;76.85;99577.88;6213086;23;20342;-76
2020/12/07 03:47:24;;;;;;;145.82;41.58;;;;;;;6.71;76.95;99583.16;6213513;23;20020;-76
2020/12/07 03:49:50;;;;;;;157.00;42.92;;;;;;;6.71;76.94;99574.41;6187806;23;20028;-76
2020/12/07 03:52:19;;;;;;;147.98;39.40;;;;;;;6.71;76.99;99585.78;6187158;23;20028;-76
2020/12/07 03:54:46;;;;;;;156.93;42.38;;;;;;;6.71;76.93;99583.16;6213257;23;20047;-77
2020/12/07 03:57:13;;;;;;;154.15;40.78;;;;;;;6.71;76.97;99593.69;6212069;23;20409;-76
2020/12/07 03:59:40;;;;;;;125.30;37.45;;;;;;;6.72;77.01;99590.09;6217304;23;20458;-76
2020/12/07 04:02:06;;;;;;;157.90;41.22;;;;;;;6.72;76.97;99598.00;6212542;23;20079;-76
2020/12/07 04:04:50;;;;;;;153.57;40.17;;;;;;;6.72;76.99;99603.25;6212892;23;20101;-76
2020/12/07 04:07:17;;;;;;;139.23;40.00;;;;;;;6.72;76.80;99605.88;6212004;23;20390;-77
2020/12/07 04:09:43;;;;;;;121.13;35.63;;;;;;;6.71;76.71;99609.47;6187323;23;20027;-76
2020/12/07 04:12:09;;;;;;;158.82;40.88;;;;;;;6.71;77.03;99619.16;6213617;23;20354;-76
2020/12/07 04:14:35;;;;;;;151.38;41.67;;;;;;;6.71;76.85;99620.00;6187737;23;20052;-76
2020/12/07 04:17:01;;;;;;;150.82;38.63;;;;;;;6.71;76.64;99620.00;6214232;23;20016;-76
2020/12/07 04:19:27;;;;;;;161.88;44.00;;;;;;;6.71;77.06;99614.72;6214366;23;20060;-76
2020/12/07 04:21:54;;;;;;;118.10;32.78;;;;;;;6.72;77.12;99611.16;6238369;23;20032;-76
2020/12/07 04:24:20;;;;;;;166.23;43.90;;;;;;;6.71;77.10;99604.19;6213555;23;20062;-76
2020/12/07 04:26:46;;;;;;;149.32;38.40;;;;;;;6.71;77.01;99593.69;6213838;23;20044;-77
2020/12/07 04:29:12;;;;;;;167.65;41.45;;;;;;;6.71;76.89;99593.69;6213711;23;20036;-76
2020/12/07 04:31:38;;;;;;;151.90;39.90;;;;;;;6.71;76.93;99587.56;6213853;23;20075;-76
2020/12/07 04:34:04;;;;;;;142.18;38.55;;;;;;;6.70;76.76;99581.44;6213776;23;20091;-77
2020/12/07 04:36:30;;;;;;;126.13;34.38;;;;;;;6.70;76.74;99581.44;6237176;23;20353;-76
2020/12/07 04:38:57;;;;;;;174.65;44.28;;;;;;;6.67;76.95;99576.34;6211452;23;20017;-76
2020/12/07 04:41:23;;;;;;;205.63;47.22;;;;;;;6.66;76.96;99579.88;6213255;23;20454;-76
2020/12/07 04:43:50;;;;;;;207.68;48.08;;;;;;;6.66;76.86;99574.63;6212593;23;20411;-77
2020/12/07 04:46:17;;;;;;;193.98;47.20;;;;;;;6.65;76.78;99572.94;6213249;23;20025;-76
2020/12/07 04:48:45;;;;;;;184.07;45.17;;;;;;;6.63;76.92;99569.53;6212579;23;20021;-76
2020/12/07 04:51:12;;;;;;;194.43;46.45;;;;;;;6.60;76.90;99560.00;6213652;23;20016;-76
2020/12/07 04:53:40;;;;;;;194.40;46.83;;;;;;;6.59;76.77;99560.06;6213991;23;20445;-76
2020/12/07 04:56:06;;;;;;;188.43;45.53;;;;;;;6.58;76.83;99555.75;6213346;23;20021;-76
2020/12/07 04:58:33;;;;;;;196.77;47.70;;;;;;;6.57;76.66;99559.28;6212402;23;20325;-76
2020/12/07 05:00:59;;;;;;;186.15;44.90;;;;;;;6.57;76.82;99559.28;6239212;23;20450;-76
2020/12/07 05:03:25;;;;;;;215.23;48.97;;;;;;;6.56;76.93;99562.88;6217147;23;20018;-76
2020/12/07 05:05:54;;;;;;;164.73;41.83;;;;;;;6.56;76.69;99558.44;6216758;23;20023;-76
2020/12/07 05:08:22;;;;;;;167.75;44.85;;;;;;;6.56;76.91;99563.72;6216852;23;20461;-76
2020/12/07 05:10:49;;;;;;;206.80;45.88;;;;;;;6.56;77.06;99560.25;6217067;23;20040;-76
2020/12/07 05:13:24;;;;;;;215.70;48.65;;;;;;;6.56;76.68;99562.88;6192492;23;20024;-77
2020/12/07 05:15:51;;;;;;;193.73;46.42;;;;;;;6.55;76.96;99550.63;6244292;23;20512;-76
2020/12/07 05:18:17;;;;;;;192.38;46.70;;;;;;;6.54;77.15;99543.69;6217339;23;20074;-76
2020/12/07 05:20:43;;;;;;;175.05;47.72;;;;;;;6.55;76.85;99546.22;6243190;23;20012;-76
2020/12/07 05:23:14;;;;;;;212.50;49.53;;;;;;;6.55;76.82;99537.47;6243813;23;20023;-77
2020/12/07 05:25:43;;;;;;;207.95;50.28;;;;;;;6.56;76.99;99536.56;6243939;23;20456;-76
2020/12/07 05:28:11;;;;;;;185.30;46.72;;;;;;;6.56;77.14;99531.31;6243967;23;20016;-77
2020/12/07 05:30:42;;;;;;;178.55;46.72;;;;;;;6.57;76.90;99527.72;6243374;23;20070;-77
2020/12/07 05:33:08;;;;;;;194.48;48.58;;;;;;;6.55;77.05;99525.16;6242489;23;20019;-76
2020/12/07 05:35:40;;;;;;;207.65;49.95;;;;;;;6.57;76.76;99522.47;6217309;23;20024;-77
2020/12/07 05:38:06;;;;;;;190.65;50.50;;;;;;;6.57;77.03;99528.59;6217026;23;20020;-76
2020/12/07 05:40:33;;;;;;;173.10;46.38;;;;;;;6.60;76.99;99538.94;6217136;23;20019;-77
2020/12/07 05:42:59;;;;;;;174.20;48.05;;;;;;;6.61;77.15;99555.56;6242114;23;20019;-77
2020/12/07 05:45:26;;;;;;;220.57;50.92;;;;;;;6.63;76.92;99565.13;6242054;23;20047;-76
2020/12/07 05:47:53;;;;;;;203.65;49.78;;;;;;;6.65;76.86;99572.94;6216218;23;20055;-76
2020/12/07 05:50:21;;;;;;;170.70;49.00;;;;;;;6.68;77.01;99585.06;6245306;23;20023;-77
2020/12/07 05:52:49;;;;;;;180.38;48.28;;;;;;;6.69;76.85;99579.75;6218856;23;20397;-77
2020/12/07 05:55:17;;;;;;;196.43;48.67;;;;;;;6.69;76.91;99585.00;6246188;23;20476;-77
2020/12/07 05:58:03;;;;;;;190.80;49.38;;;;;;;6.71;77.01;99577.88;6219267;23;20016;-77
2020/12/07 06:00:32;;;;;;;211.93;51.17;;;;;;;6.73;77.31;99583.94;6220050;23;20019;-77
2020/12/07 06:03:00;;;;;;;187.30;48.90;;;;;;;6.74;77.32;99593.53;6245234;23;20040;-77
2020/12/07 06:05:27;;;;;;;172.88;47.58;;;;;;;6.77;77.12;99593.38;6246183;23;20023;-77
2020/12/07 06:07:58;;;;;;;175.57;47.88;;;;;;;6.78;76.83;99595.09;6218305;23;20032;-77
2020/12/07 06:10:31;;;;;;;161.57;41.25;;;;;;;6.79;77.10;99591.50;6245938;23;20024;-77
2020/12/07 06:13:02;;;;;;;168.98;44.85;;;;;;;6.78;77.03;99592.44;6218744;23;20090;-77
2020/12/07 06:15:30;;;;;;;155.18;41.75;;;;;;;6.77;77.09;99590.72;6219421;23;20031;-77
2020/12/07 06:17:57;;;;;;;158.60;44.03;;;;;;;6.77;76.94;99588.09;6218786;23;20416;-77
2020/12/07 06:20:41;;;;;;;132.40;37.22;;;;;;;6.76;77.06;99589.06;6245696;23;20012;-77
2020/12/07 06:23:07;;;;;;;195.63;48.35;;;;;;;6.76;76.88;99591.69;6193883;23;20024;-77
2020/12/07 06:25:33;;;;;;;125.20;37.92;;;;;;;6.74;76.97;99577.75;6219459;23;20381;-77
2020/12/07 06:28:03;;;;;;;165.68;47.45;;;;;;;6.74;76.73;99583.00;6245271;23;20020;-77
2020/12/07 06:30:31;;;;;;;188.70;48.15;;;;;;;6.74;77.18;99583.00;6245340;23;20461;-77
2020/12/07 06:33:03;;;;;;;164.00;47.40;;;;;;;6.74;77.21;99572.50;6245389;23;20016;-77
2020/12/07 06:35:29;;;;;;;150.93;40.85;;;;;;;6.76;76.81;99575.88;6245161;23;20019;-76
2020/12/07 06:38:01;;;;;;;153.15;43.13;;;;;;;6.74;76.92;99569.84;6245234;23;20027;-77
2020/12/07 06:40:29;;;;;;;161.07;44.35;;;;;;;6.74;77.14;99572.50;6245261;23;20019;-77
2020/12/07 06:42:57;;;;;;;180.98;45.67;;;;;;;6.76;77.09;99559.22;6193704;23;20030;-77
2020/12/07 06:45:31;;;;;;;180.50;46.55;;;;;;;6.76;77.16;99570.63;6245498;23;20012;-77
2020/12/07 06:48:13;;;;;;;164.57;44.47;;;;;;;6.76;77.05;99554.84;6218102;23;20027;-77
2020/12/07 06:50:42;;;;;;;160.35;44.80;;;;;;;6.76;76.95;99562.75;6218477;23;20266;-76
2020/12/07 06:53:19;;;;;;;164.63;41.90;;;;;;;6.76;77.04;99553.97;6219384;23;20019;-77
2020/12/07 06:55:45;;;;;;;168.38;44.65;;;;;;;6.75;77.04;99563.66;6193260;23;20024;-77
2020/12/07 06:58:11;;;;;;;138.73;37.63;;;;;;;6.74;77.09;99572.50;6245025;23;20016;-77
2020/12/07 07:00:37;;;;;;;118.75;35.90;;;;;;;6.73;76.77;99569.94;6244053;23;20022;-77
2020/12/07 07:03:03;;;;;;;122.68;35.80;;;;;;;6.73;76.84;99575.19;6193106;23;20028;-77
2020/12/07 07:05:30;;;;;;;104.88;30.83;;;;;;;6.73;77.16;99570.78;6245401;23;20331;-77
2020/12/07 07:07:57;;;;;;;177.75;44.38;;;;;;;6.73;77.35;99568.13;6218696;23;20409;-77
2020/12/07 07:10:23;;;;;;;91.65;25.90;;;;;;;6.73;76.87;99569.94;6245154;23;20016;-78
2020/12/07 07:12:50;;;;;;;161.73;42.30;;;;;;;6.71;77.28;99577.88;6218003;23;20024;-78
2020/12/07 07:15:20;;;;;;;144.75;41.63;;;;;;;6.72;76.97;99584.84;6245281;23;20020;-76
2020/12/07 07:17:46;;;;;;;131.65;38.45;;;;;;;6.73;77.12;99586.56;6244720;23;20020;-77
2020/12/07 07:20:14;;;;;;;138.80;39.22;;;;;;;6.74;77.15;99588.28;6218325;23;20016;-77
2020/12/07 07:22:43;;;;;;;138.57;39.78;;;;;;;6.72;77.16;99587.47;6244868;23;20016;-77
2020/12/07 07:30:28;;;;;;;;;;;;;;;6.72;77.13;99584.84;6244954;23;20019;-77
2020/12/07 07:32:55;;;;;;;;;;;;;;;6.72;76.92;99584.00;6218336;23;19922;-77
2020/12/07 07:35:26;;;;;;;127.63;35.35;;;;;;;6.71;77.36;99583.16;6244650;23;19965;-77
2020/12/07 07:37:52;;;;;;;131.23;36.67;;;;;;;6.71;77.21;99598.94;6217326;23;20074;-77
2020/12/07 07:40:20;;;;;;;135.23;36.10;;;;;;;6.72;76.92;99590.09;6218015;23;20016;-77
2020/12/07 07:42:49;;;;;;;150.82;40.50;;;;;;;6.72;77.24;99590.09;6243731;23;20020;-77
2020/12/07 07:45:21;;;;;;;155.00;41.85;;;;;;;6.73;77.36;99596.25;6244070;23;20030;-77
2020/12/07 07:48:01;;;;;;;134.00;34.38;;;;;;;6.74;77.38;99598.81;6218940;23;20022;-77
2020/12/07 08:11:28;;;;;;;154.57;43.72;;;;;;;6.73;76.81;99618.13;6264784;23;20016;-77
2020/12/07 08:15:19;;;;;;;166.18;46.47;;;;;;;6.73;76.69;99630.44;6251367;23;20051;-77
2020/12/07 08:16:18;;;;;;;;;;;;;;;6.72;76.75;99624.31;6219240;23;20362;-77
2020/12/07 08:18:45;;;;;;;162.65;43.97;;;;;;;6.71;76.65;99629.66;6239207;23;20269;-78
2020/12/07 08:21:11;;;;;;;193.38;51.47;;;;;;;6.71;77.14;99630.50;6217397;23;20016;-77
2020/12/07 08:23:38;;;;;;;204.88;52.08;;;;;;;6.70;76.81;99639.31;6189675;23;20453;-78
2020/12/07 08:26:05;;;;;;;154.70;41.95;;;;;;;6.70;76.47;99644.59;6243264;23;20024;-78
2020/12/07 08:28:41;;;;;;;169.48;45.08;;;;;;;6.67;76.79;99643.88;6216902;23;20132;-77
2020/12/07 08:31:14;;;;;;;175.55;46.85;;;;;;;6.65;76.76;99641.34;6218359;23;20461;-78
2020/12/07 08:34:01;;;;;;;166.20;44.40;;;;;;;6.63;76.78;99649.31;6216328;23;20026;-78
2020/12/07 08:36:30;;;;;;;197.07;52.17;;;;;;;6.62;76.91;99652.00;6243659;23;20035;-77
2020/12/07 08:38:57;;;;;;;192.65;52.15;;;;;;;6.61;76.93;99660.81;6214973;23;20024;-76
2020/12/07 08:41:25;;;;;;;246.82;59.88;;;;;;;6.59;76.95;99654.78;6244243;23;20027;-75
2020/12/07 08:43:53;;;;;;;220.75;60.25;;;;;;;6.60;76.63;99659.13;6240663;23;20020;-76
2020/12/07 08:46:26;;;;;;;232.02;59.30;;;;;;;6.59;76.80;99652.13;6243410;23;20062;-76
2020/12/07 08:48:54;;;;;;;240.30;63.67;;;;;;;6.59;76.52;99657.41;6218063;23;20090;-76
2020/12/07 08:51:22;;;;;;;276.73;69.18;;;;;;;6.58;76.82;99658.34;6217195;23;20012;-76
2020/12/07 08:53:48;;;;;;;287.48;67.45;;;;;;;6.56;76.31;99660.19;6218315;23;20020;-76
2020/12/07 08:56:14;;;;;;;216.57;54.90;;;;;;;6.55;76.36;99666.38;6243746;23;20016;-77
2020/12/07 08:58:40;;;;;;;272.00;63.28;;;;;;;6.52;76.35;99667.38;6218199;23;20024;-77
2020/12/07 09:01:08;;;;;;;263.17;65.28;;;;;;;6.53;76.72;99668.22;6207313;22;20027;-79
2020/12/07 09:03:36;;;;;;;279.48;68.00;;;;;;;6.54;76.54;99664.69;6228491;23;20047;-78
2020/12/07 09:06:08;;;;;;;309.63;73.10;;;;;;;6.58;76.33;99666.22;6230118;23;20023;-80
2020/12/07 09:08:36;;;;;;;282.60;68.63;;;;;;;6.63;76.40;99674.78;6186980;23;20092;-80
2020/12/07 09:11:06;;;;;;;256.05;66.28;;;;;;;6.65;76.08;99672.91;6216883;23;20013;-80
2020/12/07 09:13:32;;;;;;;278.20;68.38;;;;;;;6.65;75.97;99667.66;6167929;23;20020;-80
2020/12/07 09:15:59;;;;;;;260.35;62.33;;;;;;;6.66;76.36;99674.59;6169362;23;20025;-80
2020/12/07 09:18:27;;;;;;;255.43;66.18;;;;;;;6.68;76.14;99683.28;6168623;23;20017;-79
2020/12/07 09:20:54;;;;;;;281.52;69.97;;;;;;;6.68;76.48;99683.28;6196270;23;20021;-78
2020/12/07 09:23:20;;;;;;;273.80;67.80;;;;;;;6.68;76.34;99704.31;6194018;23;20021;-79
2020/12/07 09:25:47;;;;;;;294.27;71.03;;;;;;;6.66;76.41;99706.16;6193254;23;20018;-78
2020/12/07 09:28:13;;;;;;;233.98;58.38;;;;;;;6.64;76.36;99708.03;6142103;23;20021;-78
2020/12/07 09:30:42;;;;;;;317.83;75.03;;;;;;;6.64;76.60;99705.41;6166324;23;20029;-79
2020/12/07 09:33:08;;;;;;;299.02;71.95;;;;;;;6.64;76.55;99702.75;6165480;23;20036;-78
2020/12/07 09:35:34;;;;;;;299.63;70.93;;;;;;;6.63;75.99;99706.34;6190186;23;20028;-79
2020/12/07 09:38:00;;;;;;;265.38;66.60;;;;;;;6.61;76.13;99713.41;6162978;23;20020;-78
2020/12/07 09:40:27;;;;;;;229.25;61.38;;;;;;;6.59;76.32;99710.00;6165607;23;20024;-79
2020/12/07 09:42:52;;;;;;;320.38;75.35;;;;;;;6.58;76.20;99709.16;6190704;23;20021;-78
2020/12/07 09:45:19;;;;;;;252.43;62.72;;;;;;;6.60;76.34;99714.38;6191120;23;20021;-78
2020/12/07 09:47:45;;;;;;;235.35;57.88;;;;;;;6.59;75.97;99710.88;6192392;23;20021;-79
2020/12/07 09:50:11;;;;;;;228.88;54.45;;;;;;;6.59;75.77;99707.38;6164972;23;20036;-78
2020/12/07 09:52:37;;;;;;;240.73;60.72;;;;;;;6.58;75.90;99708.31;6140464;23;20045;-79
2020/12/07 09:55:04;;;;;;;241.45;63.08;;;;;;;6.58;76.03;99713.59;6192756;23;20017;-78
2020/12/07 09:57:31;;;;;;;197.43;52.90;;;;;;;6.58;76.02;99710.94;6167446;23;20075;-79
2020/12/07 09:59:57;;;;;;;266.52;66.55;;;;;;;6.55;75.89;99709.31;6167195;23;20040;-79
2020/12/07 10:02:23;;;;;;;320.45;72.50;;;;;;;6.56;76.17;99715.44;6193940;23;20099;-78
2020/12/07 10:04:49;;;;;;;266.02;63.28;;;;;;;6.59;75.94;99725.78;6195676;23;20052;-78
2020/12/07 10:07:15;;;;;;;254.88;59.05;;;;;;;6.61;76.16;99718.69;6167992;23;20027;-78
2020/12/07 10:09:41;;;;;;;257.88;64.75;;;;;;;6.60;75.82;99709.94;6201956;23;20020;-78
2020/12/07 10:12:07;;;;;;;323.70;74.55;;;;;;;6.65;75.93;99719.41;6188727;23;20021;-79
2020/12/07 10:14:34;;;;;;;266.17;66.32;;;;;;;6.70;75.98;99723.50;6240685;23;20001;-78
2020/12/07 10:17:00;;;;;;;263.38;62.20;;;;;;;6.75;75.90;99729.41;6235455;23;20016;-80
2020/12/07 10:19:26;;;;;;;267.85;68.72;;;;;;;6.78;75.86;99724.03;6230975;23;20017;-79
2020/12/07 10:21:53;;;;;;;300.13;71.97;;;;;;;6.80;75.61;99730.06;6211484;23;20017;-79
2020/12/07 10:24:20;;;;;;;266.75;71.10;;;;;;;6.83;75.84;99724.63;6208839;23;20019;-80
2020/12/07 10:26:47;;;;;;;316.38;75.80;;;;;;;6.88;75.87;99726.22;6200043;23;20075;-79
2020/12/07 10:29:13;;;;;;;283.08;69.68;;;;;;;6.90;75.61;99719.94;6223826;23;20043;-79
2020/12/07 10:31:42;;;;;;;325.13;73.18;;;;;;;6.91;75.51;99731.31;6233124;23;20032;-79
2020/12/07 10:34:08;;;;;;;283.58;67.60;;;;;;;6.93;75.31;99734.72;6196408;23;20028;-79
2020/12/07 10:36:34;;;;;;;306.05;73.20;;;;;;;6.92;75.27;99733.03;6224748;23;20055;-79
2020/12/07 10:39:00;;;;;;;284.90;71.85;;;;;;;6.95;75.61;99738.13;6226842;23;20013;-79
2020/12/07 10:41:27;;;;;;;273.15;67.05;;;;;;;6.98;75.70;99730.09;6204954;23;20044;-79
2020/12/07 10:43:54;;;;;;;276.75;64.93;;;;;;;6.97;75.32;99729.25;6211957;23;20017;-79
2020/12/07 10:46:20;;;;;;;335.23;73.32;;;;;;;6.95;75.48;99738.13;6236554;23;20023;-79
2020/12/07 10:48:46;;;;;;;346.08;74.07;;;;;;;6.97;75.70;99738.94;6236640;23;20043;-78
2020/12/07 10:51:13;;;;;;;252.25;66.57;;;;;;;7.03;75.32;99746.53;6236344;23;20012;-78
2020/12/07 10:53:40;;;;;;;302.20;69.35;;;;;;;7.01;75.04;99748.41;6238322;23;20033;-79
2020/12/07 10:56:07;;;;;;;210.15;65.90;;;;;;;6.98;75.26;99744.13;6186283;23;20025;-78
2020/12/07 10:58:34;;;;;;;267.30;62.63;;;;;;;6.94;75.26;99757.50;6237013;23;20075;-78
2020/12/07 11:01:00;;;;;;;289.30;69.60;;;;;;;6.92;75.44;99759.34;6234387;23;20032;-78
2020/12/07 11:03:27;;;;;;;231.70;62.55;;;;;;;6.91;75.22;99757.63;6228804;23;20451;-79
2020/12/07 11:05:56;;;;;;;231.20;61.42;;;;;;;6.89;75.19;99755.06;6228545;23;20449;-78
2020/12/07 11:08:36;;;;;;;252.48;62.85;;;;;;;6.87;75.15;99756.09;6197368;23;20025;-78
2020/12/07 11:11:02;;;;;;;253.38;60.58;;;;;;;6.84;75.20;99759.72;6225707;23;20090;-78
2020/12/07 11:13:30;;;;;;;219.60;57.40;;;;;;;6.82;75.69;99754.53;6200064;23;20399;-79
2020/12/07 11:16:01;;;;;;;200.30;59.63;;;;;;;6.82;75.17;99749.25;6226374;23;20016;-80
2020/12/07 11:18:34;;;;;;;222.35;56.22;;;;;;;6.78;75.25;99752.97;6198908;23;20020;-79
2020/12/07 11:21:00;;;;;;;241.07;58.70;;;;;;;6.76;75.47;99754.81;6223435;23;20028;-80
2020/12/07 11:23:26;;;;;;;265.17;63.58;;;;;;;6.74;75.61;99751.41;6221842;23;20016;-80
2020/12/07 11:25:53;;;;;;;283.88;65.18;;;;;;;6.78;75.78;99755.59;6196003;23;20027;-79
2020/12/07 11:28:19;;;;;;;316.73;70.93;;;;;;;6.78;75.33;99757.34;6218061;23;20024;-79
2020/12/07 11:30:45;;;;;;;295.63;64.93;;;;;;;6.78;75.72;99750.34;6193133;23;20457;-78
2020/12/07 11:33:11;;;;;;;289.00;66.72;;;;;;;6.79;75.72;99748.56;6219754;23;20016;-78
2020/12/07 11:35:40;;;;;;;298.90;65.43;;;;;;;6.79;75.73;99759.94;6192390;23;20024;-78
2020/12/07 11:38:14;;;;;;;291.55;66.38;;;;;;;6.77;75.69;99753.88;6217538;23;20510;-78
2020/12/07 11:43:19;;;;;;;351.08;69.93;;;;;;;6.77;75.99;99760.94;6221260;23;20103;-79
2020/12/07 11:45:45;;;;;;;;;;;;;;;6.74;75.60;99755.81;6172711;23;20016;-78
2020/12/07 11:48:11;;;;;;;280.42;61.72;;;;;;;6.73;75.77;99754.97;6197431;23;19916;-78
2020/12/07 11:50:37;;;;;;;275.55;61.22;;;;;;;6.72;75.62;99755.03;6196731;23;20023;-78